Time;durP1;ratioP1;P1;durP2;ratioP2;P2;SDS_P1;SDS_P2;PMS_P1;PMS_P2;Temp;Humidity;BMP_temperature;BMP_pressure;BME280_temperature;BME280_humidity;BME280_pressure;Samples;Min_cycle;Max_cycle;Signal;HPM_P1;HPM_P2
2023/01/19 00:00:33;;;;;;;;;;;;;;;;;;5098460;28;19927;-73
2023/01/19 00:02:59;;;;;;;;;;;;;;;;;;5110745;28;19912;-72
2023/01/19 00:05:25;;;;;;;;;;;;;;;;;;5092374;28;19954;-72
2023/01/19 00:07:51;;;;;;;;;;;;;;;;;;5092000;28;19908;-72
2023/01/19 00:10:17;;;;;;;;;;;;;;;;;;5110532;28;19914;-73
2023/01/19 00:12:43;;;;;;;;;;;;;;;;;;5100524;28;19951;-72
2023/01/19 00:15:09;;;;;;;;;;;;;;;;;;5096418;28;19916;-73
2023/01/19 00:17:35;;;;;;;;;;;;;;;;;;5078695;28;19931;-73
2023/01/19 00:20:01;;;;;;;;;;;;;;;;;;5096657;28;19912;-72
2023/01/19 00:22:27;;;;;;;;;;;;;;;;;;5096304;28;19919;-72
2023/01/19 00:24:53;;;;;;;;;;;;;;;;;;5096811;28;19908;-72
2023/01/19 00:27:19;;;;;;;;;;;;;;;;;;5078816;28;20394;-72
2023/01/19 00:29:45;;;;;;;;;;;;;;;;;;5096725;28;20217;-72
2023/01/19 00:32:10;;;;;;;;;;;;;;;;;;5096662;28;19909;-73
2023/01/19 00:34:38;;;;;;;;;;;;;;;;;;5096405;28;20015;-72
2023/01/19 00:37:04;;;;;;;;;;;;;;;;;;5078446;28;20326;-71
2023/01/19 00:39:30;;;;;;;;;;;;;;;;;;5096741;28;19909;-72
2023/01/19 00:44:40;;;;;;;;;;;;;;;;;;5096323;28;19915;-72
2023/01/19 00:47:06;;;;;;;;;;;;;;;;;;5078159;28;19908;-73
2023/01/19 00:50:41;;;;;;;;;;;;;;;;;;5111491;27;20406;-73
2023/01/19 00:53:07;;;;;;;;;;;;;;;;;;5111789;28;19999;-71
2023/01/19 00:56:26;;;;;;;;;;;;;;;;;;5123668;27;20319;-72
2023/01/19 01:01:35;;;;;;;;;;;;;;;;;;5112242;27;19917;-75
2023/01/19 01:04:01;;;;;;;;;;;;;;;;;;5111386;28;20003;-72
2023/01/19 01:07:43;;;;;;;;;;;;;;;;;;5112165;27;19916;-72
2023/01/19 01:12:33;;;;;;;;;;;;;;;;;;5112550;27;20364;-73
2023/01/19 01:14:59;;;;;;;;;;;;;;;;;;5110487;28;20010;-74
2023/01/19 01:17:25;;;;;;;;;;;;;;;;;;5111370;28;20003;-73
2023/01/19 01:19:51;;;;;;;;;;;;;;;;;;5111808;28;19908;-73
2023/01/19 01:22:17;;;;;;;;;;;;;;;;;;5111677;28;19908;-73
2023/01/19 01:24:43;;;;;;;;;;;;;;;;;;5111363;28;19962;-73
2023/01/19 01:27:09;;;;;;;;;;;;;;;;;;5111874;28;19908;-70
2023/01/19 01:29:35;;;;;;;;;;;;;;;;;;5110346;28;19968;-73
2023/01/19 01:32:01;;;;;;;;;;;;;;;;;;5109718;28;19969;-73
2023/01/19 01:34:27;;;;;;;;;;;;;;;;;;5111462;28;19915;-73
2023/01/19 01:36:53;;;;;;;;;;;;;;;;;;5111643;28;19912;-73
2023/01/19 01:39:19;;;;;;;;;;;;;;;;;;5111026;28;19908;-72
2023/01/19 01:41:45;;;;;;;;;;;;;;;;;;5111349;28;20356;-72
2023/01/19 01:44:11;;;;;;;;;;;;;;;;;;5111215;28;20338;-72
2023/01/19 01:46:37;;;;;;;;;;;;;;;;;;5110856;28;19907;-73
2023/01/19 01:49:03;;;;;;;;;;;;;;;;;;5111183;28;20010;-72
2023/01/19 01:51:29;;;;;;;;;;;;;;;;;;5111398;28;19916;-73
2023/01/19 01:53:55;;;;;;;;;;;;;;;;;;5110719;28;19961;-73
2023/01/19 01:56:21;;;;;;;;;;;;;;;;;;5109740;28;20413;-72
2023/01/19 01:58:47;;;;;;;;;;;;;;;;;;5111259;28;20356;-76
2023/01/19 02:03:57;;;;;;;;;;;;;;;;;;5110903;28;20307;-72
2023/01/19 02:06:23;;;;;;;;;;;;;;;;;;5110461;28;19908;-72
2023/01/19 02:14:19;;;;;;;;;;;;;;;;;;5110360;28;19962;-72
2023/01/19 02:16:45;;;;;;;;;;;;;;;;;;5110647;28;19908;-73
2023/01/19 02:19:11;;;;;;;;;;;;;;;;;;5110567;28;19908;-73
2023/01/19 02:21:37;;;;;;;;;;;;;;;;;;5109939;28;19931;-73
2023/01/19 02:24:03;;;;;;;;;;;;;;;;;;5096341;28;19964;-72
2023/01/19 02:26:29;;;;;;;;;;;;;;;;;;5096868;28;19908;-71
2023/01/19 02:28:56;;;;;;;;;;;;;;;;;;5096419;28;19908;-71
2023/01/19 02:31:22;;;;;;;;;;;;;;;;;;5096725;28;20317;-73
2023/01/19 02:33:48;;;;;;;;;;;;;;;;;;5096731;28;19995;-73
2023/01/19 02:36:14;;;;;;;;;;;;;;;;;;5096381;28;19923;-71
2023/01/19 02:38:40;;;;;;;;;;;;;;;;;;5095383;28;19915;-71
2023/01/19 02:41:06;;;;;;;;;;;;;;;;;;5096169;28;19908;-71
2023/01/19 02:43:32;;;;;;;;;;;;;;;;;;5096364;28;19985;-72
2023/01/19 02:45:58;;;;;;;;;;;;;;;;;;5096488;28;19912;-71
2023/01/19 02:48:24;;;;;;;;;;;;;;;;;;5096022;28;19912;-71
2023/01/19 02:50:50;;;;;;;;;;;;;;;;;;5096324;28;19912;-74
2023/01/19 02:53:16;;;;;;;;;;;;;;;;;;5096321;28;19919;-72
2023/01/19 02:55:42;;;;;;;;;;;;;;;;;;5094804;28;19908;-77
2023/01/19 02:58:08;;;;;;;;;;;;;;;;;;5095136;28;20360;-73
2023/01/19 03:00:35;;;;;;;;;;;;;;;;;;5096220;28;19916;-73
2023/01/19 03:03:01;;;;;;;;;;;;;;;;;;5095825;28;19954;-72
2023/01/19 03:05:27;;;;;;;;;;;;;;;;;;5096114;28;19908;-72
2023/01/19 03:07:53;;;;;;;;;;;;;;;;;;5094807;28;20076;-71
2023/01/19 03:10:19;;;;;;;;;;;;;;;;;;5095322;28;20371;-71
2023/01/19 03:12:45;;;;;;;;;;;;;;;;;;5094759;28;19908;-72
2023/01/19 03:15:11;;;;;;;;;;;;;;;;;;5095920;28;19908;-73
2023/01/19 03:17:37;;;;;;;;;;;;;;;;;;5095602;28;19908;-73
2023/01/19 03:20:03;;;;;;;;;;;;;;;;;;5094576;28;19918;-72
2023/01/19 03:22:29;;;;;;;;;;;;;;;;;;5095752;28;19908;-72
2023/01/19 03:24:55;;;;;;;;;;;;;;;;;;5094106;28;19962;-73
2023/01/19 03:27:20;;;;;;;;;;;;;;;;;;5095730;28;19953;-72
2023/01/19 03:29:46;;;;;;;;;;;;;;;;;;5095608;28;19995;-73
2023/01/19 03:32:12;;;;;;;;;;;;;;;;;;5093797;28;19920;-71
2023/01/19 03:34:38;;;;;;;;;;;;;;;;;;5093316;28;20017;-72
2023/01/19 03:37:04;;;;;;;;;;;;;;;;;;5095495;28;19921;-72
2023/01/19 03:39:30;;;;;;;;;;;;;;;;;;5093805;28;19915;-71
2023/01/19 03:41:56;;;;;;;;;;;;;;;;;;5094138;28;19908;-72
2023/01/19 03:44:22;;;;;;;;;;;;;;;;;;5093593;28;19957;-72
2023/01/19 03:46:49;;;;;;;;;;;;;;;;;;5094069;28;19908;-72
2023/01/19 03:49:15;;;;;;;;;;;;;;;;;;5095257;28;19915;-72
2023/01/19 03:51:41;;;;;;;;;;;;;;;;;;5094779;28;19920;-72
2023/01/19 03:54:07;;;;;;;;;;;;;;;;;;5095103;28;19958;-72
2023/01/19 03:56:32;;;;;;;;;;;;;;;;;;5095047;28;19916;-73
2023/01/19 03:58:58;;;;;;;;;;;;;;;;;;5093385;28;20348;-72
2023/01/19 04:01:24;;;;;;;;;;;;;;;;;;5095446;28;20288;-73
2023/01/19 04:03:50;;;;;;;;;;;;;;;;;;5093695;28;19915;-72
2023/01/19 04:06:16;;;;;;;;;;;;;;;;;;5094583;28;20307;-73
2023/01/19 04:08:42;;;;;;;;;;;;;;;;;;5094861;28;20025;-72
2023/01/19 04:11:08;;;;;;;;;;;;;;;;;;5094596;28;19927;-71
2023/01/19 04:13:34;;;;;;;;;;;;;;;;;;5094412;28;19931;-71
2023/01/19 04:16:00;;;;;;;;;;;;;;;;;;5095056;28;19999;-72
2023/01/19 04:18:26;;;;;;;;;;;;;;;;;;5094686;28;20352;-72
2023/01/19 04:20:53;;;;;;;;;;;;;;;;;;5094296;28;20006;-72
2023/01/19 04:23:19;;;;;;;;;;;;;;;;;;5093282;28;19954;-72
2023/01/19 04:25:45;;;;;;;;;;;;;;;;;;5094571;28;19912;-72
2023/01/19 04:28:11;;;;;;;;;;;;;;;;;;5094103;28;19961;-72
2023/01/19 04:30:36;;;;;;;;;;;;;;;;;;5094437;28;19912;-72
2023/01/19 04:33:02;;;;;;;;;;;;;;;;;;5094513;28;19916;-72
2023/01/19 04:35:28;;;;;;;;;;;;;;;;;;5094232;28;19911;-72
2023/01/19 04:37:54;;;;;;;;;;;;;;;;;;5094471;28;19951;-72
2023/01/19 04:40:20;;;;;;;;;;;;;;;;;;5094293;28;20462;-72
2023/01/19 04:42:46;;;;;;;;;;;;;;;;;;5092724;28;20360;-72
2023/01/19 04:45:12;;;;;;;;;;;;;;;;;;5094048;28;19960;-72
2023/01/19 04:47:38;;;;;;;;;;;;;;;;;;5092571;28;20290;-72
2023/01/19 04:50:04;;;;;;;;;;;;;;;;;;5092945;28;19908;-72
2023/01/19 04:52:33;;;;;;;;;;;;;;;;;;5094087;28;19923;-73
2023/01/19 04:54:59;;;;;;;;;;;;;;;;;;5092441;28;19922;-72
2023/01/19 04:57:25;;;;;;;;;;;;;;;;;;5094100;28;19999;-72
2023/01/19 04:59:51;;;;;;;;;;;;;;;;;;5094114;28;19923;-72
2023/01/19 05:02:17;;;;;;;;;;;;;;;;;;5092355;28;19908;-72
2023/01/19 05:04:43;;;;;;;;;;;;;;;;;;5092897;28;19912;-71
2023/01/19 05:07:09;;;;;;;;;;;;;;;;;;5094558;28;19953;-72
2023/01/19 05:09:35;;;;;;;;;;;;;;;;;;5093608;28;20349;-72
2023/01/19 05:12:01;;;;;;;;;;;;;;;;;;5093708;28;20273;-72
2023/01/19 05:14:27;;;;;;;;;;;;;;;;;;5093912;28;19909;-73
2023/01/19 05:16:53;;;;;;;;;;;;;;;;;;5093562;28;19912;-73
2023/01/19 05:19:19;;;;;;;;;;;;;;;;;;5092604;28;19908;-73
2023/01/19 05:21:45;;;;;;;;;;;;;;;;;;5093939;28;19908;-73
2023/01/19 05:24:11;;;;;;;;;;;;;;;;;;5092199;28;19909;-72
2023/01/19 05:26:37;;;;;;;;;;;;;;;;;;5093846;28;19911;-72
2023/01/19 05:29:03;;;;;;;;;;;;;;;;;;5094006;28;20061;-72
2023/01/19 05:31:29;;;;;;;;;;;;;;;;;;5093253;28;19993;-73
2023/01/19 05:33:55;;;;;;;;;;;;;;;;;;5093987;28;20441;-72
2023/01/19 05:36:21;;;;;;;;;;;;;;;;;;5093817;28;20276;-72
2023/01/19 05:38:48;;;;;;;;;;;;;;;;;;5093298;28;19991;-72
2023/01/19 05:41:14;;;;;;;;;;;;;;;;;;5092406;28;20394;-72
2023/01/19 05:43:40;;;;;;;;;;;;;;;;;;5093777;28;19912;-73
2023/01/19 05:46:06;;;;;;;;;;;;;;;;;;5092077;28;19908;-72
2023/01/19 05:48:31;;;;;;;;;;;;;;;;;;5092344;28;19915;-72
2023/01/19 05:50:57;;;;;;;;;;;;;;;;;;5091814;28;20364;-72
2023/01/19 05:53:24;;;;;;;;;;;;;;;;;;5093588;28;19908;-72
2023/01/19 05:55:50;;;;;;;;;;;;;;;;;;5093535;28;19908;-72
2023/01/19 05:58:15;;;;;;;;;;;;;;;;;;5095493;28;19908;-72
2023/01/19 06:00:41;;;;;;;;;;;;;;;;;;5096093;28;19973;-73
2023/01/19 06:03:07;;;;;;;;;;;;;;;;;;5097282;28;19908;-72
2023/01/19 06:05:34;;;;;;;;;;;;;;;;;;5095596;28;19919;-72
2023/01/19 06:08:00;;;;;;;;;;;;;;;;;;5097198;28;19908;-72
2023/01/19 06:10:26;;;;;;;;;;;;;;;;;;5095542;28;20021;-72
2023/01/19 06:12:52;;;;;;;;;;;;;;;;;;5096933;28;20417;-73
2023/01/19 06:15:18;;;;;;;;;;;;;;;;;;5097098;28;20361;-73
2023/01/19 06:17:44;;;;;;;;;;;;;;;;;;5095772;28;19916;-73
2023/01/19 06:20:10;;;;;;;;;;;;;;;;;;5096946;28;19930;-73
2023/01/19 06:22:36;;;;;;;;;;;;;;;;;;5097004;28;20368;-72
2023/01/19 06:25:02;;;;;;;;;;;;;;;;;;5095618;28;20382;-72
2023/01/19 06:27:28;;;;;;;;;;;;;;;;;;5096603;28;20386;-72
2023/01/19 06:29:54;;;;;;;;;;;;;;;;;;5095493;28;19908;-72
2023/01/19 06:32:20;;;;;;;;;;;;;;;;;;5096854;28;19927;-72
2023/01/19 06:34:46;;;;;;;;;;;;;;;;;;5096534;28;19960;-72
2023/01/19 06:37:12;;;;;;;;;;;;;;;;;;5096699;28;19908;-72
2023/01/19 06:39:39;;;;;;;;;;;;;;;;;;5096712;28;20287;-72
2023/01/19 06:42:05;;;;;;;;;;;;;;;;;;5096258;28;19916;-73
2023/01/19 06:44:31;;;;;;;;;;;;;;;;;;5096670;28;19941;-72
2023/01/19 06:46:57;;;;;;;;;;;;;;;;;;5096613;28;19908;-71
2023/01/19 06:49:23;;;;;;;;;;;;;;;;;;5096255;28;20343;-72
2023/01/19 06:51:49;;;;;;;;;;;;;;;;;;5095164;28;20292;-71
2023/01/19 06:54:15;;;;;;;;;;;;;;;;;;5096318;28;20364;-71
2023/01/19 06:56:41;;;;;;;;;;;;;;;;;;5095312;28;19915;-73
2023/01/19 06:59:08;;;;;;;;;;;;;;;;;;5096569;28;19909;-72
2023/01/19 07:01:34;;;;;;;;;;;;;;;;;;5094495;28;19919;-72
2023/01/19 07:04:00;;;;;;;;;;;;;;;;;;5094861;28;19998;-72
2023/01/19 07:06:26;;;;;;;;;;;;;;;;;;5096081;28;19915;-72
2023/01/19 07:08:52;;;;;;;;;;;;;;;;;;5095707;28;20002;-73
2023/01/19 07:11:18;;;;;;;;;;;;;;;;;;5094515;28;19920;-73
2023/01/19 07:13:50;;;;;;;;;;;;;;;;;;5096451;28;19908;-73
2023/01/19 07:16:16;;;;;;;;;;;;;;;;;;5095998;28;19908;-73
2023/01/19 07:18:42;;;;;;;;;;;;;;;;;;5095989;28;19908;-70
2023/01/19 07:21:07;;;;;;;;;;;;;;;;;;5095928;28;19917;-73
2023/01/19 07:23:33;;;;;;;;;;;;;;;;;;5095453;28;19951;-71
2023/01/19 07:26:02;;;;;;;;;;;;;;;;;;5095680;28;19954;-71
2023/01/19 07:28:28;;;;;;;;;;;;;;;;;;5095712;28;19908;-71
2023/01/19 07:30:54;;;;;;;;;;;;;;;;;;5093877;28;19981;-72
2023/01/19 07:33:27;;;;;;;;;;;;;;;;;;5095567;28;19954;-73
2023/01/19 07:35:53;;;;;;;;;;;;;;;;;;5095473;28;20383;-73
2023/01/19 07:38:19;;;;;;;;;;;;;;;;;;5094719;28;19908;-72
2023/01/19 07:40:48;;;;;;;;;;;;;;;;;;5095478;28;20018;-73
2023/01/19 07:43:14;;;;;;;;;;;;;;;;;;5095436;28;19908;-72
2023/01/19 07:45:40;;;;;;;;;;;;;;;;;;5094904;28;19915;-72
2023/01/19 07:48:06;;;;;;;;;;;;;;;;;;5095093;28;19931;-72
2023/01/19 07:50:32;;;;;;;;;;;;;;;;;;5093459;28;19997;-72
2023/01/19 07:55:09;;;;;;;;;;;;;;;;;;5112520;27;20368;-72
2023/01/19 08:00:03;;;;;;;;;;;;;;;;;;5153083;27;20014;-73
2023/01/19 08:02:30;;;;;;;;;;;;;;;;;;5152980;27;19911;-72
2023/01/19 08:11:03;;;;;;;;;;;;;;;;;;5112338;27;19916;-71
2023/01/19 08:14:45;;;;;;;;;;;;;;;;;;5112254;27;19922;-73
2023/01/19 08:17:11;;;;;;;;;;;;;;;;;;5110079;28;20348;-73
2023/01/19 08:19:37;;;;;;;;;;;;;;;;;;5109886;28;19908;-73
2023/01/19 08:23:34;;;;;;;;;;;;;;;;;;5112274;27;20269;-72
2023/01/19 08:26:00;;;;;;;;;;;;;;;;;;5109976;28;20014;-72
2023/01/19 08:28:45;;;;;;;;;;;;;;;;;;5112419;27;20265;-73
2023/01/19 08:31:11;;;;;;;;;;;;;;;;;;5111518;28;20098;-73
2023/01/19 08:35:11;;;;;;;;;;;;;;;;;;5132639;27;19916;-73
2023/01/19 08:37:37;;;;;;;;;;;;;;;;;;5132092;28;20002;-72
2023/01/19 08:41:28;;;;;;;;;;;;;;;;;;5111283;27;19916;-72
2023/01/19 08:43:54;;;;;;;;;;;;;;;;;;5111483;28;20006;-72
2023/01/19 08:46:20;;;;;;;;;;;;;;;;;;5111711;28;19908;-73
2023/01/19 08:49:21;;;;;;;;;;;;;;;;;;5092054;27;19938;-72
2023/01/19 08:51:47;;;;;;;;;;;;;;;;;;5089689;28;20400;-73
2023/01/19 08:56:00;;;;;;;;;;;;;;;;;;5110904;27;19916;-71
2023/01/19 09:00:03;;;;;;;;;;;;;;;;;;4969178;28;19940;-72
2023/01/19 09:02:29;;;;;;;;;;;;;;;;;;4967279;28;19965;-73
2023/01/19 09:05:13;;;;;;;;;;;;;;;;;;5111667;27;20461;-73
2023/01/19 09:07:40;;;;;;;;;;;;;;;;;;5111852;28;19951;-72
2023/01/19 09:10:06;;;;;;;;;;;;;;;;;;5092723;28;19934;-72
2023/01/19 09:15:42;;;;;;;;;;;;;;;;;;5111200;27;19938;-72
2023/01/19 09:18:12;;;;;;;;;;;;;;;;;;5111469;28;20431;-73
2023/01/19 09:22:38;;;;;;;;;;;;;;;;;;5111712;27;19912;-73
2023/01/19 09:25:04;;;;;;;;;;;;;;;;;;5111380;28;20004;-71
2023/01/19 09:27:30;;;;;;;;;;;;;;;;;;5111354;28;20347;-72
2023/01/19 09:29:56;;;;;;;;;;;;;;;;;;5111140;28;19985;-72
2023/01/19 09:32:46;;;;;;;;;;;;;;;;;;5112065;27;19916;-72
2023/01/19 09:37:45;;;;;;;;;;;;;;;;;;5111331;27;19916;-72
2023/01/19 09:40:11;;;;;;;;;;;;;;;;;;5111486;28;20295;-72
2023/01/19 09:46:20;;;;;;;;;;;;;;;;;;5071703;28;19917;-72
2023/01/19 09:48:46;;;;;;;;;;;;;;;;;;5070999;28;20437;-71
2023/01/19 09:52:35;;;;;;;;;;;;;;;;;;5091762;28;19917;-72
2023/01/19 09:56:27;;;;;;;;;;;;;;;;;;5152624;27;19911;-72
2023/01/19 09:58:53;;;;;;;;;;;;;;;;;;5152015;27;19951;-72
2023/01/19 10:01:18;;;;;;;;;;;;;;;;;;5152244;27;20394;-72
2023/01/19 10:04:38;;;;;;;;;;;;;;;;;;5123685;27;20252;-72
2023/01/19 10:08:18;;;;;;;;;;;;;;;;;;5112192;27;19922;-71
2023/01/19 10:10:44;;;;;;;;;;;;;;;;;;5110150;28;19912;-72
2023/01/19 10:16:11;;;;;;;;;;;;;;;;;;5111627;27;20307;-73
2023/01/19 10:18:42;;;;;;;;;;;;;;;;;;5109831;28;20014;-73
2023/01/19 10:21:10;;;;;;;;;;;;;;;;;;5111841;28;20368;-73
2023/01/19 10:24:00;;;;;;;;;;;;;;;;;;5091755;27;19917;-72
2023/01/19 10:29:02;;;;;;;;;;;;;;;;;;5132475;27;19912;-73
2023/01/19 10:33:04;;;;;;;;;;;;;;;;;;5111980;27;19916;-73
2023/01/19 10:37:14;;;;;;;;;;;;;;;;;;5152791;27;20451;-70
2023/01/19 10:39:40;;;;;;;;;;;;;;;;;;5133854;27;20002;-72
2023/01/19 10:42:06;;;;;;;;;;;;;;;;;;5134811;27;19946;-71
2023/01/19 10:44:32;;;;;;;;;;;;;;;;;;5152839;27;19911;-72
2023/01/19 10:48:26;;;;;;;;;;;;;;;;;;5111514;27;20388;-74
2023/01/19 10:51:10;;;;;;;;;;;;;;;;;;5091942;27;19916;-74
2023/01/19 10:54:16;;;;;;;;;;;;;;;;;;5091440;28;19917;-73
2023/01/19 10:58:16;;;;;;;;;;;;;;;;;;5111753;27;19916;-72
2023/01/19 11:01:47;;;;;;;;;;;;;;;;;;5111387;27;20295;-72
2023/01/19 11:04:13;;;;;;;;;;;;;;;;;;5111751;28;20007;-73
2023/01/19 11:07:39;;;;;;;;;;;;;;;;;;5091688;27;19919;-72
2023/01/19 11:10:05;;;;;;;;;;;;;;;;;;5090063;28;20011;-72
2023/01/19 11:12:31;;;;;;;;;;;;;;;;;;5091262;28;19913;-74
2023/01/19 11:14:57;;;;;;;;;;;;;;;;;;5091096;28;20003;-73
2023/01/19 11:18:25;;;;;;;;;;;;;;;;;;5112381;27;19916;-73
2023/01/19 11:20:51;;;;;;;;;;;;;;;;;;5111738;28;20006;-73
2023/01/19 11:23:17;;;;;;;;;;;;;;;;;;5110010;28;19915;-75
2023/01/19 11:27:01;;;;;;;;;;;;;;;;;;5112291;27;19918;-73
2023/01/19 11:29:28;;;;;;;;;;;;;;;;;;5111630;28;19999;-73
2023/01/19 11:31:56;;;;;;;;;;;;;;;;;;5111725;28;19951;-74
2023/01/19 11:35:35;;;;;;;;;;;;;;;;;;5111916;27;20271;-73
2023/01/19 11:40:34;;;;;;;;;;;;;;;;;;5091453;27;19912;-74
2023/01/19 11:46:49;;;;;;;;;;;;;;;;;;5112144;27;19912;-73
2023/01/19 11:52:36;;;;;;;;;;;;;;;;;;5153329;27;20421;-73
2023/01/19 11:57:35;;;;;;;;;;;;;;;;;;5111592;27;19916;-73
2023/01/19 12:00:02;;;;;;;;;;;;;;;;;;5111771;28;20446;-73
2023/01/19 12:02:28;;;;;;;;;;;;;;;;;;5111775;28;19916;-73
2023/01/19 12:05:12;;;;;;;;;;;;;;;;;;5111825;27;20402;-73
2023/01/19 12:08:06;;;;;;;;;;;;;;;;;;5112684;27;19916;-72
2023/01/19 12:10:32;;;;;;;;;;;;;;;;;;5111810;28;20026;-74
2023/01/19 12:13:52;;;;;;;;;;;;;;;;;;5092313;28;19916;-73
2023/01/19 12:16:18;;;;;;;;;;;;;;;;;;5091525;28;19912;-74
2023/01/19 12:18:44;;;;;;;;;;;;;;;;;;5089668;28;19954;-73
2023/01/19 12:23:20;;;;;;;;;;;;;;;;;;5112572;27;20391;-72
2023/01/19 12:27:29;;;;;;;;;;;;;;;;;;5112141;27;19912;-73
2023/01/19 12:32:11;;;;;;;;;;;;;;;;;;5091651;28;19912;-72
2023/01/19 12:34:37;;;;;;;;;;;;;;;;;;5091297;28;20340;-74
2023/01/19 12:39:21;;;;;;;;;;;;;;;;;;5091390;28;20430;-72
2023/01/19 12:42:05;;;;;;;;;;;;;;;;;;5111877;27;19917;-73
2023/01/19 12:46:25;;;;;;;;;;;;;;;;;;5111555;27;19916;-73
2023/01/19 12:48:51;;;;;;;;;;;;;;;;;;5111783;28;20347;-73
2023/01/19 12:51:17;;;;;;;;;;;;;;;;;;5110393;28;19908;-74
2023/01/19 12:53:43;;;;;;;;;;;;;;;;;;5111448;28;19962;-73
2023/01/19 12:56:36;;;;;;;;;;;;;;;;;;5112522;27;19916;-73
2023/01/19 12:59:02;;;;;;;;;;;;;;;;;;5110494;28;20015;-73
2023/01/19 13:03:38;;;;;;;;;;;;;;;;;;5091473;27;19923;-72
2023/01/19 13:07:09;;;;;;;;;;;;;;;;;;5111624;27;19916;-73
2023/01/19 13:10:46;;;;;;;;;;;;;;;;;;5111805;27;19916;-74
2023/01/19 13:15:17;;;;;;;;;;;;;;;;;;5173842;27;19915;-73
2023/01/19 13:17:42;;;;;;;;;;;;;;;;;;5155341;27;20001;-73
2023/01/19 13:20:08;;;;;;;;;;;;;;;;;;5173766;27;19960;-72
2023/01/19 13:26:01;;;;;;;;;;;;;;;;;;5112337;27;19923;-73
2023/01/19 13:30:46;;;;;;;;;;;;;;;;;;5091893;27;19923;-73
2023/01/19 13:33:12;;;;;;;;;;;;;;;;;;5091412;28;20003;-73
2023/01/19 13:35:38;;;;;;;;;;;;;;;;;;5089646;28;19961;-72
2023/01/19 13:38:04;;;;;;;;;;;;;;;;;;5091658;28;19915;-70
2023/01/19 13:41:22;;;;;;;;;;;;;;;;;;5112587;27;19916;-71
2023/01/19 13:43:48;;;;;;;;;;;;;;;;;;5111398;28;20477;-71
2023/01/19 13:46:16;;;;;;;;;;;;;;;;;;5111676;28;19908;-72
2023/01/19 13:48:42;;;;;;;;;;;;;;;;;;5111705;28;19918;-72
2023/01/19 13:51:08;;;;;;;;;;;;;;;;;;5111173;28;20007;-72
2023/01/19 13:53:35;;;;;;;;;;;;;;;;;;5112164;28;19914;-73
2023/01/19 13:56:01;;;;;;;;;;;;;;;;;;5111522;28;19995;-72
2023/01/19 13:58:28;;;;;;;;;;;;;;;;;;5111141;28;20410;-74
2023/01/19 14:00:53;;;;;;;;;;;;;;;;;;5111417;28;19915;-73
2023/01/19 14:03:20;;;;;;;;;;;;;;;;;;5110979;28;20065;-72
2023/01/19 14:05:46;;;;;;;;;;;;;;;;;;5111355;28;19958;-72
2023/01/19 14:08:12;;;;;;;;;;;;;;;;;;5111344;28;20008;-72
2023/01/19 14:10:38;;;;;;;;;;;;;;;;;;5110814;28;20364;-72
2023/01/19 14:13:04;;;;;;;;;;;;;;;;;;5111237;28;19915;-72
2023/01/19 14:15:30;;;;;;;;;;;;;;;;;;5111171;28;19951;-71
2023/01/19 14:17:56;;;;;;;;;;;;;;;;;;5110889;28;19908;-72
2023/01/19 14:20:22;;;;;;;;;;;;;;;;;;5110932;28;19973;-72
2023/01/19 14:22:49;;;;;;;;;;;;;;;;;;5111061;28;19909;-72
2023/01/19 14:25:15;;;;;;;;;;;;;;;;;;5110603;28;19908;-72
2023/01/19 14:27:41;;;;;;;;;;;;;;;;;;5111082;28;20317;-72
2023/01/19 14:30:07;;;;;;;;;;;;;;;;;;5111128;28;20393;-73
2023/01/19 14:32:33;;;;;;;;;;;;;;;;;;5110461;28;20342;-73
2023/01/19 14:35:08;;;;;;;;;;;;;;;;;;5110793;28;20272;-72
2023/01/19 14:37:34;;;;;;;;;;;;;;;;;;5109447;28;19908;-71
2023/01/19 14:40:00;;;;;;;;;;;;;;;;;;5108844;28;19920;-71
2023/01/19 14:42:26;;;;;;;;;;;;;;;;;;5110849;28;20391;-71
2023/01/19 14:44:52;;;;;;;;;;;;;;;;;;5109229;28;20006;-72
2023/01/19 14:47:18;;;;;;;;;;;;;;;;;;5108832;28;19908;-72
2023/01/19 14:49:44;;;;;;;;;;;;;;;;;;5110618;28;19908;-71
2023/01/19 14:52:10;;;;;;;;;;;;;;;;;;5099916;28;19915;-72
2023/01/19 14:54:36;;;;;;;;;;;;;;;;;;5095151;28;19909;-71
2023/01/19 14:57:01;;;;;;;;;;;;;;;;;;5096820;28;19919;-72
2023/01/19 14:59:27;;;;;;;;;;;;;;;;;;5095517;28;19955;-73
2023/01/19 15:01:53;;;;;;;;;;;;;;;;;;5096311;28;19912;-72
2023/01/19 15:04:19;;;;;;;;;;;;;;;;;;5096688;28;19944;-70
2023/01/19 15:06:46;;;;;;;;;;;;;;;;;;5096282;28;19908;-71
2023/01/19 15:09:12;;;;;;;;;;;;;;;;;;5097053;28;19991;-70
2023/01/19 15:11:37;;;;;;;;;;;;;;;;;;5096666;28;19939;-71
2023/01/19 15:14:03;;;;;;;;;;;;;;;;;;5095982;28;19915;-71
2023/01/19 15:16:29;;;;;;;;;;;;;;;;;;5096516;28;19912;-71
2023/01/19 15:18:55;;;;;;;;;;;;;;;;;;5096346;28;19958;-73
2023/01/19 15:21:27;;;;;;;;;;;;;;;;;;5094693;28;19916;-73
2023/01/19 15:23:53;;;;;;;;;;;;;;;;;;5095045;28;19915;-71
2023/01/19 15:26:19;;;;;;;;;;;;;;;;;;5095048;28;20390;-73
2023/01/19 15:28:45;;;;;;;;;;;;;;;;;;5095888;28;20003;-71
2023/01/19 15:31:11;;;;;;;;;;;;;;;;;;5096141;28;19916;-72
2023/01/19 15:33:37;;;;;;;;;;;;;;;;;;5096192;28;19915;-72
2023/01/19 15:36:04;;;;;;;;;;;;;;;;;;5095559;28;19909;-71
2023/01/19 15:38:30;;;;;;;;;;;;;;;;;;5096232;28;19908;-71
2023/01/19 15:40:56;;;;;;;;;;;;;;;;;;5095712;28;20390;-71
2023/01/19 15:43:22;;;;;;;;;;;;;;;;;;5094275;28;20269;-72
2023/01/19 15:45:48;;;;;;;;;;;;;;;;;;5095908;28;19908;-70
2023/01/19 15:48:14;;;;;;;;;;;;;;;;;;5094486;28;19912;-72
2023/01/19 15:50:40;;;;;;;;;;;;;;;;;;5095432;28;19908;-71
2023/01/19 15:53:06;;;;;;;;;;;;;;;;;;5095742;28;19946;-70
2023/01/19 15:55:32;;;;;;;;;;;;;;;;;;5096208;28;19908;-72
2023/01/19 15:58:01;;;;;;;;;;;;;;;;;;5093894;28;19908;-71
2023/01/19 16:00:27;;;;;;;;;;;;;;;;;;5095496;28;19920;-71
2023/01/19 16:02:53;;;;;;;;;;;;;;;;;;5092783;28;20043;-71
2023/01/19 16:05:19;;;;;;;;;;;;;;;;;;5095447;28;19915;-70
2023/01/19 16:07:45;;;;;;;;;;;;;;;;;;5094241;28;20273;-70
2023/01/19 16:10:12;;;;;;;;;;;;;;;;;;5093708;28;20379;-70
2023/01/19 16:12:38;;;;;;;;;;;;;;;;;;5094053;28;19908;-71
2023/01/19 16:15:04;;;;;;;;;;;;;;;;;;5095323;28;20357;-70
2023/01/19 16:17:30;;;;;;;;;;;;;;;;;;5093582;28;20417;-71
2023/01/19 16:19:56;;;;;;;;;;;;;;;;;;5095061;28;19923;-72
2023/01/19 16:22:22;;;;;;;;;;;;;;;;;;5095285;28;19966;-71
2023/01/19 16:24:48;;;;;;;;;;;;;;;;;;5093427;28;19915;-71
2023/01/19 16:27:14;;;;;;;;;;;;;;;;;;5093822;28;20045;-70
2023/01/19 16:29:40;;;;;;;;;;;;;;;;;;5095078;28;19940;-70
2023/01/19 16:32:05;;;;;;;;;;;;;;;;;;5094544;28;19998;-71
2023/01/19 16:34:31;;;;;;;;;;;;;;;;;;5093662;28;19912;-71
2023/01/19 16:36:57;;;;;;;;;;;;;;;;;;5094956;28;19916;-71
2023/01/19 16:39:23;;;;;;;;;;;;;;;;;;5094239;28;20057;-71
2023/01/19 16:41:49;;;;;;;;;;;;;;;;;;5094856;28;19908;-71
2023/01/19 16:44:15;;;;;;;;;;;;;;;;;;5094791;28;20352;-72
2023/01/19 16:46:41;;;;;;;;;;;;;;;;;;5093022;28;20360;-73
2023/01/19 16:49:07;;;;;;;;;;;;;;;;;;5094635;28;19931;-72
2023/01/19 16:51:33;;;;;;;;;;;;;;;;;;5094683;28;19999;-72
2023/01/19 16:53:59;;;;;;;;;;;;;;;;;;5094171;28;19909;-73
2023/01/19 16:56:25;;;;;;;;;;;;;;;;;;5094499;28;19958;-73
2023/01/19 16:58:51;;;;;;;;;;;;;;;;;;5093261;28;19908;-73
2023/01/19 17:01:17;;;;;;;;;;;;;;;;;;5093991;28;19951;-73
2023/01/19 17:03:43;;;;;;;;;;;;;;;;;;5093196;28;19977;-72
2023/01/19 17:06:09;;;;;;;;;;;;;;;;;;5094099;28;19919;-72
2023/01/19 17:08:35;;;;;;;;;;;;;;;;;;5094411;28;19912;-72
2023/01/19 17:11:03;;;;;;;;;;;;;;;;;;5094329;28;20283;-71
2023/01/19 17:13:29;;;;;;;;;;;;;;;;;;5094084;28;20714;-72
2023/01/19 17:15:55;;;;;;;;;;;;;;;;;;5093277;28;19908;-72
2023/01/19 17:18:21;;;;;;;;;;;;;;;;;;5092889;28;20279;-71
2023/01/19 17:20:47;;;;;;;;;;;;;;;;;;5093848;28;20288;-73
2023/01/19 17:23:13;;;;;;;;;;;;;;;;;;5094177;28;20299;-72
2023/01/19 17:25:39;;;;;;;;;;;;;;;;;;5094117;28;20275;-72
2023/01/19 17:28:05;;;;;;;;;;;;;;;;;;5092527;28;19908;-71
2023/01/19 17:30:31;;;;;;;;;;;;;;;;;;5094032;28;19930;-72
2023/01/19 17:32:57;;;;;;;;;;;;;;;;;;5094009;28;20364;-72
2023/01/19 17:35:23;;;;;;;;;;;;;;;;;;5093709;28;20403;-71
2023/01/19 17:37:49;;;;;;;;;;;;;;;;;;5093946;28;19946;-72
2023/01/19 17:40:15;;;;;;;;;;;;;;;;;;5093876;28;19927;-72
2023/01/19 17:42:41;;;;;;;;;;;;;;;;;;5093550;28;19915;-72
2023/01/19 17:45:07;;;;;;;;;;;;;;;;;;5094183;28;19951;-72
2023/01/19 17:47:33;;;;;;;;;;;;;;;;;;5092700;28;19999;-72
2023/01/19 17:49:58;;;;;;;;;;;;;;;;;;5093518;28;19908;-72
2023/01/19 17:52:24;;;;;;;;;;;;;;;;;;5093908;28;19915;-72
2023/01/19 17:54:50;;;;;;;;;;;;;;;;;;5094012;28;19946;-72
2023/01/19 17:57:16;;;;;;;;;;;;;;;;;;5092200;28;20265;-73
2023/01/19 17:59:42;;;;;;;;;;;;;;;;;;5093672;28;20009;-72
2023/01/19 18:02:08;;;;;;;;;;;;;;;;;;5093828;28;19919;-72
2023/01/19 18:04:34;;;;;;;;;;;;;;;;;;5093388;28;19961;-72
2023/01/19 18:07:00;;;;;;;;;;;;;;;;;;5093577;28;19912;-71
2023/01/19 18:09:26;;;;;;;;;;;;;;;;;;5093269;28;20004;-72
2023/01/19 18:11:52;;;;;;;;;;;;;;;;;;5092445;28;19912;-72
2023/01/19 18:14:18;;;;;;;;;;;;;;;;;;5092334;28;20353;-72
2023/01/19 18:16:44;;;;;;;;;;;;;;;;;;5093233;28;19908;-72
2023/01/19 18:19:10;;;;;;;;;;;;;;;;;;5093922;28;19981;-72
2023/01/19 18:21:36;;;;;;;;;;;;;;;;;;5093620;28;19912;-73
2023/01/19 18:24:02;;;;;;;;;;;;;;;;;;5093645;28;19948;-71
2023/01/19 18:26:28;;;;;;;;;;;;;;;;;;5094657;28;20395;-72
2023/01/19 18:28:55;;;;;;;;;;;;;;;;;;5097331;28;19970;-72
2023/01/19 18:31:21;;;;;;;;;;;;;;;;;;5095822;28;20321;-72